Pacific Dawn — 2AGH7 — position and weather

sailwx.info

Track history (hours):
 
Tides and Currents Weather Stations Pressure Air Temp Water Temp Dewpoint Dewpoint Depression Visibility Wind Speed Wind Dir Waves Ship Positions

Pacific Dawn

Last reported at 2017-Jul-27 12:00 UTC. Time now 2017-Jul-28 08:39 UTC.
Position S 21°54' E 160°06'.

Length 245 m; draft 8.3 m.

Type: Passenger vessel. MMSI: 235059368.

Wind from 130 at 18 knots

Barometer 1020.4 mb
Air temperature 20.0 ° C
Visibility: greater than 10.8 NM
Dewpoint 10.9 ° C
Water temperature 24.6 ° C

Date/timePositionNaut miles runAvg speedWind from/ knotsBaromVisibWave heightAir tempDewpointWater temp
2017-Jul-27 12:00S 21°54' E 160°06'47410.5 130 / 181020.410.8 20.010.924.6
2017-Jul-25 15:00S 18°42' E 167°48'5117.0 150 / 281016.410.8 21.016.927.0
2017-Jul-25 12:00S 19°30' E 167°30'177 7.4 140 / 261017.410.8 21.016.927.0
2017-Jul-24 12:08S 22°24' E 166°56'819.1
2017-Jul-24 11:43S 22°24' E 166°47'418.3
2017-Jul-24 11:30S 22°23' E 166°43'918.2
2017-Jul-24 11:00S 22°22' E 166°33'917.0
2017-Jul-24 10:30S 22°18' E 166°25'2 4.7
2017-Jul-24 10:00S 22°16' E 166°26'0 0.0
2017-Jul-24 09:29S 22°16' E 166°26'0 0.0
2017-Jul-24 08:59S 22°16' E 166°26'0 0.0
2017-Jul-24 08:29S 22°16' E 166°26'0 0.0
2017-Jul-24 07:50S 22°16' E 166°26'0 0.0
2017-Jul-24 07:29S 22°16' E 166°26'0 0.0
2017-Jul-24 06:59S 22°16' E 166°26'0 0.0
2017-Jul-24 06:26S 22°16' E 166°26'0 0.0
2017-Jul-24 05:59S 22°16' E 166°26'0 0.0
2017-Jul-24 05:29S 22°16' E 166°26'0 0.0
2017-Jul-24 04:59S 22°16' E 166°26'0 0.0
2017-Jul-24 04:29S 22°16' E 166°26'0 0.0
2017-Jul-24 03:59S 22°16' E 166°26'1 1.8
2017-Jul-24 03:31S 22°17' E 166°26'815.7
2017-Jul-24 03:00S 22°19' E 166°18'713.5
2017-Jul-24 02:30S 22°24' E 166°12'50118.2
2017-Jul-22 23:00S 25°12' E 157°36'24718.3 170 / 81021.510.8 20.010.924.8
2017-Jul-22 09:26S 26°40' E 153°19'1111.6
2017-Jul-22 08:28S 26°49' E 153°10'613.4
2017-Jul-22 08:00S 26°55' E 153°11'815.9
2017-Jul-22 07:30S 27°02' E 153°15'714.9
2017-Jul-22 07:00S 27°07' E 153°21'815.4
2017-Jul-22 06:30S 27°15' E 153°19'815.7
2017-Jul-22 06:00S 27°19' E 153°12'510.3
2017-Jul-22 05:30S 27°24' E 153°09'4 7.3
2017-Jul-22 05:00S 27°27' E 153°06'2 0.3
2017-Jul-21 21:52S 27°26' E 153°04'0 0.0
2017-Jul-21 21:28S 27°26' E 153°04'0 0.0
2017-Jul-21 20:58S 27°26' E 153°04'0 0.0
2017-Jul-21 20:28S 27°26' E 153°04'0 0.0
2017-Jul-21 19:58S 27°26' E 153°04'0 0.2
2017-Jul-21 19:30S 27°27' E 153°04'3 5.8
2017-Jul-21 19:00S 27°26' E 153°07'4 7.4
2017-Jul-21 18:30S 27°23' E 153°10'510.9
2017-Jul-21 18:00S 27°18' E 153°13'816.6
2017-Jul-21 17:31S 27°13' E 153°20'816.2
2017-Jul-21 17:01S 27°05' E 153°19'815.7
2017-Jul-21 16:31S 26°59' E 153°14'816.6
2017-Jul-21 16:00S 26°51' E 153°09'1013.3
2017-Jul-21 15:16S 26°42' E 153°11'2 8.2
2017-Jul-21 15:00S 26°41' E 153°13'  
2017-Jul-17 12:00S 19°00' E 147°18'   070 / 191019.110.8 22.018.924.8
Track history (hours):
 
Tides and Currents Weather Stations Pressure Air Temp Water Temp Dewpoint Dewpoint Depression Visibility Wind Speed Wind Dir Waves Ship Positions

Pacific Dawn

Last reported at 2017-Jul-27 12:00 UTC. Time now 2017-Jul-28 08:39 UTC.
Position S 21°54' E 160°06'.

Length 245 m; draft 8.3 m.

Type: Passenger vessel. MMSI: 235059368.

Wind from 130 at 18 knots

Barometer 1020.4 mb
Air temperature 20.0 ° C
Visibility: greater than 10.8 NM
Dewpoint 10.9 ° C
Water temperature 24.6 ° C

Date/timePositionNaut miles runAvg speedWind from/ knotsBaromVisibWave heightAir tempDewpointWater temp
2017-Jul-27 12:00S 21°54' E 160°06'47410.5 130 / 181020.410.8 20.010.924.6
2017-Jul-25 15:00S 18°42' E 167°48'5117.0 150 / 281016.410.8 21.016.927.0
2017-Jul-25 12:00S 19°30' E 167°30'177 7.4 140 / 261017.410.8 21.016.927.0
2017-Jul-24 12:08S 22°24' E 166°56'819.1
2017-Jul-24 11:43S 22°24' E 166°47'418.3
2017-Jul-24 11:30S 22°23' E 166°43'918.2
2017-Jul-24 11:00S 22°22' E 166°33'917.0
2017-Jul-24 10:30S 22°18' E 166°25'2 4.7
2017-Jul-24 10:00S 22°16' E 166°26'0 0.0
2017-Jul-24 09:29S 22°16' E 166°26'0 0.0
2017-Jul-24 08:59S 22°16' E 166°26'0 0.0
2017-Jul-24 08:29S 22°16' E 166°26'0 0.0
2017-Jul-24 07:50S 22°16' E 166°26'0 0.0
2017-Jul-24 07:29S 22°16' E 166°26'0 0.0
2017-Jul-24 06:59S 22°16' E 166°26'0 0.0
2017-Jul-24 06:26S 22°16' E 166°26'0 0.0
2017-Jul-24 05:59S 22°16' E 166°26'0 0.0
2017-Jul-24 05:29S 22°16' E 166°26'0 0.0
2017-Jul-24 04:59S 22°16' E 166°26'0 0.0
2017-Jul-24 04:29S 22°16' E 166°26'0 0.0
2017-Jul-24 03:59S 22°16' E 166°26'1 1.8
2017-Jul-24 03:31S 22°17' E 166°26'815.7
2017-Jul-24 03:00S 22°19' E 166°18'713.5
2017-Jul-24 02:30S 22°24' E 166°12'50118.2
2017-Jul-22 23:00S 25°12' E 157°36'24718.3 170 / 81021.510.8 20.010.924.8
2017-Jul-22 09:26S 26°40' E 153°19'1111.6
2017-Jul-22 08:28S 26°49' E 153°10'613.4
2017-Jul-22 08:00S 26°55' E 153°11'815.9
2017-Jul-22 07:30S 27°02' E 153°15'714.9
2017-Jul-22 07:00S 27°07' E 153°21'815.4
2017-Jul-22 06:30S 27°15' E 153°19'815.7
2017-Jul-22 06:00S 27°19' E 153°12'510.3
2017-Jul-22 05:30S 27°24' E 153°09'4 7.3
2017-Jul-22 05:00S 27°27' E 153°06'2 0.3
2017-Jul-21 21:52S 27°26' E 153°04'0 0.0
2017-Jul-21 21:28S 27°26' E 153°04'0 0.0
2017-Jul-21 20:58S 27°26' E 153°04'0 0.0
2017-Jul-21 20:28S 27°26' E 153°04'0 0.0
2017-Jul-21 19:58S 27°26' E 153°04'0 0.2
2017-Jul-21 19:30S 27°27' E 153°04'3 5.8
2017-Jul-21 19:00S 27°26' E 153°07'4 7.4
2017-Jul-21 18:30S 27°23' E 153°10'510.9
2017-Jul-21 18:00S 27°18' E 153°13'816.6
2017-Jul-21 17:31S 27°13' E 153°20'816.2
2017-Jul-21 17:01S 27°05' E 153°19'815.7
2017-Jul-21 16:31S 26°59' E 153°14'816.6
2017-Jul-21 16:00S 26°51' E 153°09'1013.3
2017-Jul-21 15:16S 26°42' E 153°11'2 8.2
2017-Jul-21 15:00S 26°41' E 153°13'  
2017-Jul-17 12:00S 19°00' E 147°18'   070 / 191019.110.8 22.018.924.8

Dump ship's entire track history